sensor_id;sensor_type;location;lat;lon;timestamp;pressure;altitude;pressure_sealevel;temperature;humidity
10668;BME280;5382;42.136;24.796;2022-08-20T00:00:48;99353.72;;;27.11;81.80
10668;BME280;5382;42.136;24.796;2022-08-20T00:03:20;99356.34;;;27.18;80.32
10668;BME280;5382;42.136;24.796;2022-08-20T00:05:49;99330.91;;;27.01;81.26
10668;BME280;5382;42.136;24.796;2022-08-20T00:08:18;99345.72;;;27.16;80.98
10668;BME280;5382;42.136;24.796;2022-08-20T00:10:45;99353.84;;;27.16;81.22
10668;BME280;5382;42.136;24.796;2022-08-20T00:13:16;99354.63;;;27.24;81.84
10668;BME280;5382;42.136;24.796;2022-08-20T00:15:45;99356.56;;;27.16;81.76
10668;BME280;5382;42.136;24.796;2022-08-20T00:18:12;99351.13;;;27.16;82.72
10668;BME280;5382;42.136;24.796;2022-08-20T00:20:43;99359.16;;;27.11;83.02
10668;BME280;5382;42.136;24.796;2022-08-20T00:23:12;99344.63;;;27.06;83.92
10668;BME280;5382;42.136;24.796;2022-08-20T00:25:40;99337.13;;;26.89;84.63
10668;BME280;5382;42.136;24.796;2022-08-20T00:28:08;99335.97;;;26.97;85.17
10668;BME280;5382;42.136;24.796;2022-08-20T00:30:40;99334.19;;;26.91;85.63
10668;BME280;5382;42.136;24.796;2022-08-20T00:33:09;99316.53;;;26.82;85.66
10668;BME280;5382;42.136;24.796;2022-08-20T00:35:40;99343.38;;;26.90;86.75
10668;BME280;5382;42.136;24.796;2022-08-20T00:38:08;99326.72;;;26.86;87.20
10668;BME280;5382;42.136;24.796;2022-08-20T00:40:37;99337.84;;;26.96;87.31
10668;BME280;5382;42.136;24.796;2022-08-20T00:43:06;99337.22;;;26.83;87.56
10668;BME280;5382;42.136;24.796;2022-08-20T00:45:50;99340.91;;;26.88;88.76
10668;BME280;5382;42.136;24.796;2022-08-20T00:48:22;99335.97;;;26.67;91.08
10668;BME280;5382;42.136;24.796;2022-08-20T00:50:49;99336.94;;;26.72;91.77
10668;BME280;5382;42.136;24.796;2022-08-20T00:53:18;99341.31;;;26.73;91.55
10668;BME280;5382;42.136;24.796;2022-08-20T00:55:46;99342.22;;;26.67;92.28
10668;BME280;5382;42.136;24.796;2022-08-20T00:58:13;99336.06;;;26.60;91.59
10668;BME280;5382;42.136;24.796;2022-08-20T01:00:45;99344.41;;;26.59;91.95
10668;BME280;5382;42.136;24.796;2022-08-20T01:03:17;99340.28;;;26.56;90.78
10668;BME280;5382;42.136;24.796;2022-08-20T01:05:46;99335.75;;;26.50;89.71
10668;BME280;5382;42.136;24.796;2022-08-20T01:08:16;99343.38;;;26.41;89.00
10668;BME280;5382;42.136;24.796;2022-08-20T01:10:45;99345.06;;;26.36;89.92
10668;BME280;5382;42.136;24.796;2022-08-20T01:13:17;99296.66;;;26.02;90.49
10668;BME280;5382;42.136;24.796;2022-08-20T01:15:47;99337.41;;;26.14;93.68
10668;BME280;5382;42.136;24.796;2022-08-20T01:18:18;99348.34;;;26.07;95.08
10668;BME280;5382;42.136;24.796;2022-08-20T01:20:49;99337.19;;;25.97;97.25
10668;BME280;5382;42.136;24.796;2022-08-20T01:23:20;99338.88;;;25.92;98.93
10668;BME280;5382;42.136;24.796;2022-08-20T01:26:03;99321.69;;;25.79;99.70
10668;BME280;5382;42.136;24.796;2022-08-20T01:28:37;99326.63;;;25.64;100.00
10668;BME280;5382;42.136;24.796;2022-08-20T01:31:06;99318.78;;;25.56;100.00
10668;BME280;5382;42.136;24.796;2022-08-20T01:33:34;99319.16;;;25.59;100.00
10668;BME280;5382;42.136;24.796;2022-08-20T01:36:03;99312.69;;;25.60;100.00
10668;BME280;5382;42.136;24.796;2022-08-20T01:38:31;99324.50;;;25.66;100.00
10668;BME280;5382;42.136;24.796;2022-08-20T01:41:17;99329.94;;;25.66;100.00
10668;BME280;5382;42.136;24.796;2022-08-20T01:43:48;99324.91;;;25.70;100.00
10668;BME280;5382;42.136;24.796;2022-08-20T01:46:16;99321.09;;;25.77;100.00
10668;BME280;5382;42.136;24.796;2022-08-20T01:48:44;99321.59;;;25.67;100.00
10668;BME280;5382;42.136;24.796;2022-08-20T01:51:14;99278.88;;;25.44;100.00
10668;BME280;5382;42.136;24.796;2022-08-20T01:53:45;99323.47;;;25.67;100.00
10668;BME280;5382;42.136;24.796;2022-08-20T01:56:18;99322.50;;;25.61;100.00
10668;BME280;5382;42.136;24.796;2022-08-20T01:58:48;99314.03;;;25.51;100.00
10668;BME280;5382;42.136;24.796;2022-08-20T02:01:22;99315.34;;;25.42;100.00
10668;BME280;5382;42.136;24.796;2022-08-20T02:03:49;99327.41;;;25.46;100.00
10668;BME280;5382;42.136;24.796;2022-08-20T02:06:17;99332.59;;;25.48;100.00
10668;BME280;5382;42.136;24.796;2022-08-20T02:08:44;99324.91;;;25.19;100.00
10668;BME280;5382;42.136;24.796;2022-08-20T02:11:11;99332.63;;;25.16;100.00
10668;BME280;5382;42.136;24.796;2022-08-20T02:13:39;99331.38;;;25.12;100.00
10668;BME280;5382;42.136;24.796;2022-08-20T02:16:07;99330.78;;;25.10;100.00
10668;BME280;5382;42.136;24.796;2022-08-20T02:18:34;99329.34;;;25.07;100.00
10668;BME280;5382;42.136;24.796;2022-08-20T02:21:01;99341.72;;;24.90;100.00
10668;BME280;5382;42.136;24.796;2022-08-20T02:23:28;99332.56;;;24.91;100.00
10668;BME280;5382;42.136;24.796;2022-08-20T02:25:55;99328.84;;;24.85;100.00
10668;BME280;5382;42.136;24.796;2022-08-20T02:28:22;99327.22;;;24.77;100.00
10668;BME280;5382;42.136;24.796;2022-08-20T02:30:53;99333.72;;;24.70;100.00
10668;BME280;5382;42.136;24.796;2022-08-20T02:33:22;99330.00;;;24.64;100.00
10668;BME280;5382;42.136;24.796;2022-08-20T02:35:49;99332.72;;;24.64;100.00
10668;BME280;5382;42.136;24.796;2022-08-20T02:38:17;99329.56;;;24.67;99.38
10668;BME280;5382;42.136;24.796;2022-08-20T02:40:46;99325.41;;;24.65;95.86
10668;BME280;5382;42.136;24.796;2022-08-20T02:43:14;99328.94;;;24.65;96.52
10668;BME280;5382;42.136;24.796;2022-08-20T02:45:42;99330.38;;;24.68;96.17
10668;BME280;5382;42.136;24.796;2022-08-20T02:48:13;99309.06;;;24.53;95.26
10668;BME280;5382;42.136;24.796;2022-08-20T02:50:47;99327.13;;;24.59;94.29
10668;BME280;5382;42.136;24.796;2022-08-20T02:53:15;99327.75;;;24.54;94.46
10668;BME280;5382;42.136;24.796;2022-08-20T02:55:43;99328.63;;;24.48;95.01
10668;BME280;5382;42.136;24.796;2022-08-20T02:58:10;99329.84;;;24.52;95.04
10668;BME280;5382;42.136;24.796;2022-08-20T03:00:37;99327.56;;;24.49;94.13
10668;BME280;5382;42.136;24.796;2022-08-20T03:03:05;99315.56;;;24.32;94.54
10668;BME280;5382;42.136;24.796;2022-08-20T03:05:34;99326.78;;;24.29;94.97
10668;BME280;5382;42.136;24.796;2022-08-20T03:08:02;99320.78;;;24.27;94.91
10668;BME280;5382;42.136;24.796;2022-08-20T03:10:31;99331.22;;;24.10;96.48
10668;BME280;5382;42.136;24.796;2022-08-20T03:12:59;99317.50;;;24.11;97.42
10668;BME280;5382;42.136;24.796;2022-08-20T03:15:27;99319.78;;;24.14;98.11
10668;BME280;5382;42.136;24.796;2022-08-20T03:17:55;99315.88;;;24.04;99.91
10668;BME280;5382;42.136;24.796;2022-08-20T03:20:23;99320.41;;;24.10;99.34
10668;BME280;5382;42.136;24.796;2022-08-20T03:22:51;99319.59;;;24.03;100.00
10668;BME280;5382;42.136;24.796;2022-08-20T03:25:18;99325.88;;;23.83;100.00
10668;BME280;5382;42.136;24.796;2022-08-20T03:27:45;99318.59;;;23.70;100.00
10668;BME280;5382;42.136;24.796;2022-08-20T03:30:16;99322.34;;;23.56;100.00
10668;BME280;5382;42.136;24.796;2022-08-20T03:32:44;99319.22;;;23.59;100.00
10668;BME280;5382;42.136;24.796;2022-08-20T03:35:13;99328.16;;;23.66;100.00
10668;BME280;5382;42.136;24.796;2022-08-20T03:37:40;99326.72;;;23.57;100.00
10668;BME280;5382;42.136;24.796;2022-08-20T03:40:12;99316.94;;;23.23;100.00
10668;BME280;5382;42.136;24.796;2022-08-20T03:42:40;99328.97;;;23.20;100.00
10668;BME280;5382;42.136;24.796;2022-08-20T03:45:09;99337.50;;;23.30;100.00
10668;BME280;5382;42.136;24.796;2022-08-20T03:47:36;99346.44;;;23.31;100.00
10668;BME280;5382;42.136;24.796;2022-08-20T03:50:06;99338.34;;;23.44;100.00
10668;BME280;5382;42.136;24.796;2022-08-20T03:52:34;99339.38;;;23.50;100.00
10668;BME280;5382;42.136;24.796;2022-08-20T03:55:01;99327.75;;;23.56;100.00
10668;BME280;5382;42.136;24.796;2022-08-20T03:57:29;99333.78;;;23.65;100.00
10668;BME280;5382;42.136;24.796;2022-08-20T03:59:56;99333.59;;;23.73;100.00
10668;BME280;5382;42.136;24.796;2022-08-20T04:02:23;99334.63;;;23.79;100.00
10668;BME280;5382;42.136;24.796;2022-08-20T04:04:51;99335.66;;;23.91;100.00
10668;BME280;5382;42.136;24.796;2022-08-20T04:07:23;99340.38;;;24.02;100.00
10668;BME280;5382;42.136;24.796;2022-08-20T04:09:52;99319.16;;;24.12;100.00
10668;BME280;5382;42.136;24.796;2022-08-20T04:12:21;99339.22;;;24.43;100.00
10668;BME280;5382;42.136;24.796;2022-08-20T04:14:51;99311.13;;;24.44;100.00
10668;BME280;5382;42.136;24.796;2022-08-20T04:17:19;99318.56;;;24.62;100.00
10668;BME280;5382;42.136;24.796;2022-08-20T04:19:46;99337.59;;;24.80;100.00
10668;BME280;5382;42.136;24.796;2022-08-20T04:22:13;99339.00;;;24.58;100.00
10668;BME280;5382;42.136;24.796;2022-08-20T04:24:41;99334.50;;;24.19;100.00
10668;BME280;5382;42.136;24.796;2022-08-20T04:27:08;99345.31;;;24.19;100.00
10668;BME280;5382;42.136;24.796;2022-08-20T04:29:35;99352.19;;;24.21;100.00
10668;BME280;5382;42.136;24.796;2022-08-20T04:32:04;99362.13;;;24.34;100.00
10668;BME280;5382;42.136;24.796;2022-08-20T04:34:32;99352.53;;;24.51;100.00
10668;BME280;5382;42.136;24.796;2022-08-20T04:37:02;99356.44;;;24.62;100.00
10668;BME280;5382;42.136;24.796;2022-08-20T04:39:29;99355.78;;;24.67;100.00
10668;BME280;5382;42.136;24.796;2022-08-20T04:41:55;99355.19;;;24.65;100.00
10668;BME280;5382;42.136;24.796;2022-08-20T04:44:22;99355.59;;;24.68;100.00
10668;BME280;5382;42.136;24.796;2022-08-20T04:46:49;99349.31;;;24.74;100.00
10668;BME280;5382;42.136;24.796;2022-08-20T04:49:17;99351.13;;;24.80;100.00
10668;BME280;5382;42.136;24.796;2022-08-20T04:51:50;99359.25;;;24.87;100.00
10668;BME280;5382;42.136;24.796;2022-08-20T04:54:19;99361.56;;;24.84;100.00
10668;BME280;5382;42.136;24.796;2022-08-20T04:56:45;99370.97;;;24.68;100.00
10668;BME280;5382;42.136;24.796;2022-08-20T04:59:12;99363.34;;;24.58;100.00
10668;BME280;5382;42.136;24.796;2022-08-20T05:01:39;99362.28;;;24.66;100.00
10668;BME280;5382;42.136;24.796;2022-08-20T05:04:06;99362.66;;;24.69;100.00
10668;BME280;5382;42.136;24.796;2022-08-20T05:06:34;99365.53;;;24.74;100.00
10668;BME280;5382;42.136;24.796;2022-08-20T05:09:02;99361.81;;;24.69;100.00
10668;BME280;5382;42.136;24.796;2022-08-20T05:11:29;99356.63;;;24.67;100.00
10668;BME280;5382;42.136;24.796;2022-08-20T05:13:56;99359.75;;;24.71;100.00
10668;BME280;5382;42.136;24.796;2022-08-20T05:16:23;99357.41;;;24.81;99.57
10668;BME280;5382;42.136;24.796;2022-08-20T05:18:50;99349.66;;;24.91;99.00
10668;BME280;5382;42.136;24.796;2022-08-20T05:21:17;99347.03;;;25.10;97.73
10668;BME280;5382;42.136;24.796;2022-08-20T05:23:46;99352.16;;;25.24;99.05
10668;BME280;5382;42.136;24.796;2022-08-20T05:26:13;99347.34;;;25.27;97.22
10668;BME280;5382;42.136;24.796;2022-08-20T05:28:40;99360.53;;;25.48;95.80
10668;BME280;5382;42.136;24.796;2022-08-20T05:31:07;99359.59;;;25.61;93.80
10668;BME280;5382;42.136;24.796;2022-08-20T05:33:36;99359.63;;;25.79;92.27
10668;BME280;5382;42.136;24.796;2022-08-20T05:36:04;99355.75;;;25.94;90.64
10668;BME280;5382;42.136;24.796;2022-08-20T05:38:33;99357.50;;;26.06;90.25
10668;BME280;5382;42.136;24.796;2022-08-20T05:41:02;99361.97;;;26.19;89.80
10668;BME280;5382;42.136;24.796;2022-08-20T05:43:30;99357.59;;;26.37;87.97
10668;BME280;5382;42.136;24.796;2022-08-20T05:45:59;99348.78;;;26.41;88.32
10668;BME280;5382;42.136;24.796;2022-08-20T05:48:27;99355.13;;;26.53;88.53
10668;BME280;5382;42.136;24.796;2022-08-20T05:50:54;99352.84;;;26.69;89.17
10668;BME280;5382;42.136;24.796;2022-08-20T05:53:22;99355.25;;;26.77;88.49
10668;BME280;5382;42.136;24.796;2022-08-20T05:55:49;99357.66;;;26.85;87.02
10668;BME280;5382;42.136;24.796;2022-08-20T05:58:20;99355.22;;;26.95;86.51
10668;BME280;5382;42.136;24.796;2022-08-20T06:00:51;99344.25;;;27.02;85.39
10668;BME280;5382;42.136;24.796;2022-08-20T06:03:18;99356.72;;;26.91;85.53
10668;BME280;5382;42.136;24.796;2022-08-20T06:06:17;99345.72;;;26.86;87.31
10668;BME280;5382;42.136;24.796;2022-08-20T06:08:45;99346.47;;;26.93;88.13
10668;BME280;5382;42.136;24.796;2022-08-20T06:11:11;99343.41;;;27.02;88.18
10668;BME280;5382;42.136;24.796;2022-08-20T06:13:40;99337.25;;;26.94;86.26
10668;BME280;5382;42.136;24.796;2022-08-20T06:16:06;99336.06;;;26.90;87.56
10668;BME280;5382;42.136;24.796;2022-08-20T06:18:34;99348.50;;;27.10;89.46
10668;BME280;5382;42.136;24.796;2022-08-20T06:21:01;99342.84;;;27.11;90.81
10668;BME280;5382;42.136;24.796;2022-08-20T06:23:28;99351.44;;;27.27;90.61
10668;BME280;5382;42.136;24.796;2022-08-20T06:25:55;99337.72;;;27.22;90.05
10668;BME280;5382;42.136;24.796;2022-08-20T06:28:21;99346.59;;;27.40;89.33
10668;BME280;5382;42.136;24.796;2022-08-20T06:30:50;99352.91;;;27.53;89.47
10668;BME280;5382;42.136;24.796;2022-08-20T06:33:17;99353.72;;;27.53;89.26
10668;BME280;5382;42.136;24.796;2022-08-20T06:35:44;99346.03;;;27.50;89.10
10668;BME280;5382;42.136;24.796;2022-08-20T06:38:11;99349.34;;;27.52;88.95
10668;BME280;5382;42.136;24.796;2022-08-20T06:40:39;99324.53;;;27.60;90.68
10668;BME280;5382;42.136;24.796;2022-08-20T06:43:06;99337.56;;;27.70;91.09
10668;BME280;5382;42.136;24.796;2022-08-20T06:45:33;99334.13;;;27.63;92.25
10668;BME280;5382;42.136;24.796;2022-08-20T06:48:06;99340.84;;;27.60;90.95
10668;BME280;5382;42.136;24.796;2022-08-20T06:50:36;99340.97;;;27.66;92.05
10668;BME280;5382;42.136;24.796;2022-08-20T06:53:04;99341.44;;;27.74;91.36
10668;BME280;5382;42.136;24.796;2022-08-20T06:55:32;99340.41;;;27.75;91.56
10668;BME280;5382;42.136;24.796;2022-08-20T06:58:02;99345.22;;;27.73;90.59
10668;BME280;5382;42.136;24.796;2022-08-20T07:00:30;99337.41;;;27.77;90.91
10668;BME280;5382;42.136;24.796;2022-08-20T07:02:58;99337.41;;;27.77;88.03
10668;BME280;5382;42.136;24.796;2022-08-20T07:05:27;99333.75;;;27.71;88.54
10668;BME280;5382;42.136;24.796;2022-08-20T07:07:54;99337.31;;;27.72;87.54
10668;BME280;5382;42.136;24.796;2022-08-20T07:10:22;99333.41;;;27.79;89.47
10668;BME280;5382;42.136;24.796;2022-08-20T07:12:50;99341.09;;;27.82;87.20
10668;BME280;5382;42.136;24.796;2022-08-20T07:15:19;99332.69;;;27.96;89.43
10668;BME280;5382;42.136;24.796;2022-08-20T07:17:50;99328.94;;;27.97;88.29
10668;BME280;5382;42.136;24.796;2022-08-20T07:20:18;99323.84;;;28.00;86.14
10668;BME280;5382;42.136;24.796;2022-08-20T07:22:47;99325.38;;;28.08;87.90
10668;BME280;5382;42.136;24.796;2022-08-20T07:25:16;99315.44;;;28.02;87.61
10668;BME280;5382;42.136;24.796;2022-08-20T07:27:44;99323.34;;;28.03;87.80
10668;BME280;5382;42.136;24.796;2022-08-20T07:30:14;99314.16;;;28.04;87.10
10668;BME280;5382;42.136;24.796;2022-08-20T07:32:59;99319.06;;;28.31;86.31
10668;BME280;5382;42.136;24.796;2022-08-20T07:35:25;99322.81;;;28.42;84.64
10668;BME280;5382;42.136;24.796;2022-08-20T07:37:54;99316.06;;;28.56;85.08
10668;BME280;5382;42.136;24.796;2022-08-20T07:40:23;99311.19;;;28.58;83.33
10668;BME280;5382;42.136;24.796;2022-08-20T07:42:52;99314.47;;;28.60;84.02
10668;BME280;5382;42.136;24.796;2022-08-20T07:45:19;99295.78;;;28.64;82.89
10668;BME280;5382;42.136;24.796;2022-08-20T07:47:46;99300.28;;;28.87;82.61
10668;BME280;5382;42.136;24.796;2022-08-20T07:50:18;99308.97;;;28.84;82.72
10668;BME280;5382;42.136;24.796;2022-08-20T07:52:45;99302.72;;;29.00;83.11
10668;BME280;5382;42.136;24.796;2022-08-20T07:55:15;99298.78;;;29.08;81.01
10668;BME280;5382;42.136;24.796;2022-08-20T07:57:42;99306.56;;;29.33;79.93
10668;BME280;5382;42.136;24.796;2022-08-20T08:00:13;99315.22;;;29.30;78.17
10668;BME280;5382;42.136;24.796;2022-08-20T08:02:40;99304.56;;;29.28;78.21
10668;BME280;5382;42.136;24.796;2022-08-20T08:05:08;99296.63;;;29.27;78.79
10668;BME280;5382;42.136;24.796;2022-08-20T08:07:36;99295.66;;;29.33;78.32
10668;BME280;5382;42.136;24.796;2022-08-20T08:10:06;99288.03;;;29.35;78.78
10668;BME280;5382;42.136;24.796;2022-08-20T08:12:37;99284.06;;;29.43;77.50
10668;BME280;5382;42.136;24.796;2022-08-20T08:15:10;99282.66;;;29.57;76.18
10668;BME280;5382;42.136;24.796;2022-08-20T08:17:38;99277.16;;;29.69;75.13
10668;BME280;5382;42.136;24.796;2022-08-20T08:20:07;99272.75;;;29.85;75.05
10668;BME280;5382;42.136;24.796;2022-08-20T08:22:36;99275.09;;;29.98;74.42
10668;BME280;5382;42.136;24.796;2022-08-20T08:25:08;99273.06;;;30.10;71.25
10668;BME280;5382;42.136;24.796;2022-08-20T08:27:36;99254.56;;;30.17;70.30
10668;BME280;5382;42.136;24.796;2022-08-20T08:30:04;99262.16;;;30.32;69.35
10668;BME280;5382;42.136;24.796;2022-08-20T08:32:31;99257.06;;;30.41;69.53
10668;BME280;5382;42.136;24.796;2022-08-20T08:35:02;99252.81;;;30.50;68.98
10668;BME280;5382;42.136;24.796;2022-08-20T08:37:29;99210.53;;;30.31;66.01
10668;BME280;5382;42.136;24.796;2022-08-20T08:39:55;99242.97;;;30.76;66.85
10668;BME280;5382;42.136;24.796;2022-08-20T08:42:26;99239.25;;;30.88;67.81
10668;BME280;5382;42.136;24.796;2022-08-20T08:44:57;99235.06;;;31.07;66.51
10668;BME280;5382;42.136;24.796;2022-08-20T08:47:27;99233.78;;;31.20;66.75
10668;BME280;5382;42.136;24.796;2022-08-20T08:49:56;99227.56;;;31.29;65.10
10668;BME280;5382;42.136;24.796;2022-08-20T08:52:26;99226.00;;;31.39;66.28
10668;BME280;5382;42.136;24.796;2022-08-20T08:54:58;99223.47;;;31.27;64.63
10668;BME280;5382;42.136;24.796;2022-08-20T08:57:25;99191.00;;;30.98;64.46
10668;BME280;5382;42.136;24.796;2022-08-20T08:59:55;99215.81;;;31.29;63.91
10668;BME280;5382;42.136;24.796;2022-08-20T09:02:26;99218.91;;;31.38;65.72
10668;BME280;5382;42.136;24.796;2022-08-20T09:04:57;99215.19;;;31.59;64.77
10668;BME280;5382;42.136;24.796;2022-08-20T09:07:29;99210.56;;;31.65;62.57
10668;BME280;5382;42.136;24.796;2022-08-20T09:09:57;99214.00;;;31.92;62.14
10668;BME280;5382;42.136;24.796;2022-08-20T09:12:24;99197.38;;;32.04;60.75
10668;BME280;5382;42.136;24.796;2022-08-20T09:14:53;99191.50;;;31.85;61.72
10668;BME280;5382;42.136;24.796;2022-08-20T09:17:21;99195.44;;;32.00;61.62
10668;BME280;5382;42.136;24.796;2022-08-20T09:19:50;99202.38;;;32.33;59.24
10668;BME280;5382;42.136;24.796;2022-08-20T09:22:21;99194.25;;;32.74;59.26
10668;BME280;5382;42.136;24.796;2022-08-20T09:24:49;99197.25;;;32.98;57.95
10668;BME280;5382;42.136;24.796;2022-08-20T09:27:17;99192.34;;;33.10;56.76
10668;BME280;5382;42.136;24.796;2022-08-20T09:29:44;99195.63;;;33.17;56.40
10668;BME280;5382;42.136;24.796;2022-08-20T09:32:13;99189.28;;;33.37;55.75
10668;BME280;5382;42.136;24.796;2022-08-20T09:34:42;99182.38;;;33.45;54.52
10668;BME280;5382;42.136;24.796;2022-08-20T09:37:11;99180.47;;;33.40;53.61
10668;BME280;5382;42.136;24.796;2022-08-20T09:39:38;99180.75;;;33.54;54.92
10668;BME280;5382;42.136;24.796;2022-08-20T09:42:07;99176.28;;;33.74;54.36
10668;BME280;5382;42.136;24.796;2022-08-20T09:44:34;99158.16;;;33.83;54.44
10668;BME280;5382;42.136;24.796;2022-08-20T09:47:01;99166.59;;;33.92;53.23
10668;BME280;5382;42.136;24.796;2022-08-20T09:49:28;99165.19;;;33.99;53.11
10668;BME280;5382;42.136;24.796;2022-08-20T09:51:55;99164.16;;;33.90;53.42
10668;BME280;5382;42.136;24.796;2022-08-20T09:54:24;99154.19;;;34.04;52.23
10668;BME280;5382;42.136;24.796;2022-08-20T09:56:54;99156.66;;;34.11;53.32
10668;BME280;5382;42.136;24.796;2022-08-20T09:59:21;99150.88;;;34.13;51.51
10668;BME280;5382;42.136;24.796;2022-08-20T10:01:48;99137.91;;;34.23;51.94
10668;BME280;5382;42.136;24.796;2022-08-20T10:04:15;99132.00;;;34.40;51.06
10668;BME280;5382;42.136;24.796;2022-08-20T10:06:42;99136.34;;;34.46;49.50
10668;BME280;5382;42.136;24.796;2022-08-20T10:09:09;99129.91;;;34.66;50.25
10668;BME280;5382;42.136;24.796;2022-08-20T10:11:37;99128.63;;;34.88;49.64
10668;BME280;5382;42.136;24.796;2022-08-20T10:14:04;99125.56;;;34.89;48.66
10668;BME280;5382;42.136;24.796;2022-08-20T10:16:33;99111.91;;;35.08;48.67
10668;BME280;5382;42.136;24.796;2022-08-20T10:19:00;99113.16;;;34.92;48.21
10668;BME280;5382;42.136;24.796;2022-08-20T10:21:28;99115.19;;;35.10;47.03
10668;BME280;5382;42.136;24.796;2022-08-20T10:23:55;99114.88;;;35.17;47.32
10668;BME280;5382;42.136;24.796;2022-08-20T10:26:22;99114.16;;;35.30;46.64
10668;BME280;5382;42.136;24.796;2022-08-20T10:28:50;99104.34;;;35.24;45.95
10668;BME280;5382;42.136;24.796;2022-08-20T10:31:17;99095.41;;;35.56;47.51
10668;BME280;5382;42.136;24.796;2022-08-20T10:33:44;99101.63;;;35.67;43.37
10668;BME280;5382;42.136;24.796;2022-08-20T10:36:13;99102.41;;;35.92;43.23
10668;BME280;5382;42.136;24.796;2022-08-20T10:38:41;99099.13;;;35.90;40.63
10668;BME280;5382;42.136;24.796;2022-08-20T10:41:08;99091.53;;;35.81;41.05
10668;BME280;5382;42.136;24.796;2022-08-20T10:43:35;99094.59;;;36.18;40.28
10668;BME280;5382;42.136;24.796;2022-08-20T10:46:03;99089.31;;;36.54;38.51
10668;BME280;5382;42.136;24.796;2022-08-20T10:48:30;99082.94;;;36.73;37.55
10668;BME280;5382;42.136;24.796;2022-08-20T10:50:57;99073.22;;;37.22;36.74
10668;BME280;5382;42.136;24.796;2022-08-20T10:53:24;99071.38;;;37.31;35.92
10668;BME280;5382;42.136;24.796;2022-08-20T10:55:51;99068.38;;;37.69;34.22
10668;BME280;5382;42.136;24.796;2022-08-20T10:58:18;99062.81;;;38.19;34.49
10668;BME280;5382;42.136;24.796;2022-08-20T11:00:45;99059.19;;;38.55;33.46
10668;BME280;5382;42.136;24.796;2022-08-20T11:03:13;99058.91;;;38.65;32.31
10668;BME280;5382;42.136;24.796;2022-08-20T11:05:40;99053.06;;;38.98;31.49
10668;BME280;5382;42.136;24.796;2022-08-20T11:08:07;99043.81;;;39.11;31.72
10668;BME280;5382;42.136;24.796;2022-08-20T11:10:34;99035.22;;;39.13;30.81
10668;BME280;5382;42.136;24.796;2022-08-20T11:13:04;99043.53;;;39.21;31.07
10668;BME280;5382;42.136;24.796;2022-08-20T11:15:32;99033.25;;;39.13;31.07
10668;BME280;5382;42.136;24.796;2022-08-20T11:18:01;99031.56;;;39.52;30.00
10668;BME280;5382;42.136;24.796;2022-08-20T11:20:30;99021.97;;;39.58;31.24
10668;BME280;5382;42.136;24.796;2022-08-20T11:22:57;99022.25;;;39.39;30.26
10668;BME280;5382;42.136;24.796;2022-08-20T11:25:25;99020.69;;;39.90;29.98
10668;BME280;5382;42.136;24.796;2022-08-20T11:27:53;99019.69;;;40.30;28.45
10668;BME280;5382;42.136;24.796;2022-08-20T11:30:22;99015.59;;;40.27;28.74
10668;BME280;5382;42.136;24.796;2022-08-20T11:32:49;99022.31;;;40.00;29.28
10668;BME280;5382;42.136;24.796;2022-08-20T11:35:16;99011.38;;;39.43;29.15
10668;BME280;5382;42.136;24.796;2022-08-20T11:37:47;99019.22;;;39.58;29.19
10668;BME280;5382;42.136;24.796;2022-08-20T11:40:14;99004.72;;;39.96;28.79
10668;BME280;5382;42.136;24.796;2022-08-20T11:42:41;99002.13;;;39.82;28.79
10668;BME280;5382;42.136;24.796;2022-08-20T11:45:08;98991.00;;;40.17;28.93
10668;BME280;5382;42.136;24.796;2022-08-20T11:47:35;98998.56;;;40.55;28.04
10668;BME280;5382;42.136;24.796;2022-08-20T11:50:05;98994.78;;;40.68;28.01
10668;BME280;5382;42.136;24.796;2022-08-20T11:52:34;98989.44;;;40.54;27.62
10668;BME280;5382;42.136;24.796;2022-08-20T11:55:05;98978.41;;;40.84;27.75
10668;BME280;5382;42.136;24.796;2022-08-20T11:57:34;98987.44;;;41.02;26.72
10668;BME280;5382;42.136;24.796;2022-08-20T12:00:05;98982.75;;;41.53;26.12
10668;BME280;5382;42.136;24.796;2022-08-20T12:02:34;98980.22;;;41.39;26.09
10668;BME280;5382;42.136;24.796;2022-08-20T12:05:01;98977.72;;;41.68;26.04
10668;BME280;5382;42.136;24.796;2022-08-20T12:07:28;98975.06;;;41.71;25.68
10668;BME280;5382;42.136;24.796;2022-08-20T12:09:55;98975.00;;;41.80;25.15
10668;BME280;5382;42.136;24.796;2022-08-20T12:12:23;98963.25;;;41.95;25.38
10668;BME280;5382;42.136;24.796;2022-08-20T12:14:51;98964.81;;;41.84;25.62
10668;BME280;5382;42.136;24.796;2022-08-20T12:17:20;98962.47;;;41.32;25.11
10668;BME280;5382;42.136;24.796;2022-08-20T12:19:49;98950.56;;;41.10;25.36
10668;BME280;5382;42.136;24.796;2022-08-20T12:22:17;98964.88;;;41.12;25.70
10668;BME280;5382;42.136;24.796;2022-08-20T12:24:44;98965.78;;;41.25;25.25
10668;BME280;5382;42.136;24.796;2022-08-20T12:27:15;98946.38;;;41.67;25.41
10668;BME280;5382;42.136;24.796;2022-08-20T12:29:45;98956.13;;;42.07;24.88
10668;BME280;5382;42.136;24.796;2022-08-20T12:32:12;98951.56;;;41.69;24.79
10668;BME280;5382;42.136;24.796;2022-08-20T12:34:41;98951.34;;;41.95;24.54
10668;BME280;5382;42.136;24.796;2022-08-20T12:37:09;98936.19;;;42.04;24.90
10668;BME280;5382;42.136;24.796;2022-08-20T12:39:38;98930.34;;;41.85;24.30
10668;BME280;5382;42.136;24.796;2022-08-20T12:42:06;98924.81;;;41.64;24.40
10668;BME280;5382;42.136;24.796;2022-08-20T12:44:33;98933.00;;;41.18;24.73
10668;BME280;5382;42.136;24.796;2022-08-20T12:47:08;98924.41;;;41.53;24.81
10668;BME280;5382;42.136;24.796;2022-08-20T12:49:35;98932.41;;;41.55;24.32
10668;BME280;5382;42.136;24.796;2022-08-20T12:52:02;98936.47;;;41.36;24.39
10668;BME280;5382;42.136;24.796;2022-08-20T12:54:29;98922.63;;;41.49;23.90
10668;BME280;5382;42.136;24.796;2022-08-20T12:56:56;98931.47;;;41.51;24.20
10668;BME280;5382;42.136;24.796;2022-08-20T12:59:24;98925.66;;;42.10;23.66
10668;BME280;5382;42.136;24.796;2022-08-20T13:01:51;98917.66;;;42.79;23.37
10668;BME280;5382;42.136;24.796;2022-08-20T13:04:20;98924.38;;;42.65;22.62